createdAt,value
2022-10-23T00:02:13.285Z,101523.22
2022-10-23T00:04:40.963Z,101534.63
2022-10-23T00:07:08.650Z,101513.06
2022-10-23T00:09:37.707Z,101499.38
2022-10-23T00:12:05.542Z,101501.31
2022-10-23T00:14:33.259Z,101507.78
2022-10-23T00:17:00.995Z,101496.25
2022-10-23T00:19:28.720Z,101486.44
2022-10-23T00:21:56.442Z,101493.50
2022-10-23T00:24:24.130Z,101500.06
2022-10-23T00:26:53.339Z,101463.63
2022-10-23T00:29:21.055Z,101476.22
2022-10-23T00:31:48.740Z,101489.03
2022-10-23T00:34:16.487Z,101478.78
2022-10-23T00:36:44.190Z,101464.28
2022-10-23T00:39:11.900Z,101484.81
2022-10-23T00:41:39.609Z,101490.81
2022-10-23T00:44:12.084Z,101467.06
2022-10-23T00:46:41.027Z,101470.97
2022-10-23T00:49:10.467Z,101460.13
2022-10-23T00:51:42.453Z,101445.88
2022-10-23T00:54:23.372Z,101445.88
2022-10-23T00:56:53.774Z,101480.28
2022-10-23T00:59:22.933Z,101475.78
2022-10-23T01:01:50.844Z,101446.00
2022-10-23T01:04:18.991Z,101443.53
2022-10-23T01:06:54.402Z,101446.34
2022-10-23T01:09:30.110Z,101434.81
2022-10-23T01:12:05.472Z,101458.56
2022-10-23T01:14:40.618Z,101444.63
2022-10-23T01:17:13.570Z,101488.97
2022-10-23T01:19:52.226Z,101499.88
2022-10-23T01:22:54.928Z,101525.25
2022-10-23T01:25:30.706Z,101519.75
2022-10-23T01:28:04.054Z,101512.97
2022-10-23T01:30:34.739Z,101550.66
2022-10-23T01:33:07.086Z,101562.69
2022-10-23T01:35:38.174Z,101574.84
2022-10-23T01:38:13.430Z,101562.41
2022-10-23T01:40:48.248Z,101577.59
2022-10-23T01:43:22.102Z,101556.53
2022-10-23T01:45:54.123Z,101548.13
2022-10-23T01:48:26.999Z,101567.81
2022-10-23T01:50:57.584Z,101562.69
2022-10-23T01:53:30.631Z,101573.50
2022-10-23T01:56:00.136Z,101567.19
2022-10-23T01:58:31.802Z,101556.22
2022-10-23T02:01:04.226Z,101545.16
2022-10-23T02:03:33.809Z,101541.63
2022-10-23T02:06:01.573Z,101556.72
2022-10-23T02:08:29.568Z,101558.81
2022-10-23T02:11:05.891Z,101554.53
2022-10-23T02:13:40.068Z,101549.31
2022-10-23T02:16:17.582Z,101565.78
2022-10-23T02:18:52.921Z,101571.56
2022-10-23T02:21:30.555Z,101578.44
2022-10-23T02:24:04.170Z,101590.78
2022-10-23T02:26:39.474Z,101586.50
2022-10-23T02:29:11.964Z,101579.34
2022-10-23T02:31:39.801Z,101579.34
2022-10-23T02:34:07.718Z,101590.53
2022-10-23T02:36:35.501Z,101598.31
2022-10-23T02:39:03.210Z,101588.25
2022-10-23T02:41:40.405Z,101577.50
2022-10-23T02:44:26.016Z,101576.81
2022-10-23T02:47:01.648Z,101568.72
2022-10-23T02:49:36.252Z,101570.09
2022-10-23T02:52:10.037Z,101570.34
2022-10-23T02:54:49.321Z,101582.53
2022-10-23T02:57:24.552Z,101567.00
2022-10-23T03:00:02.798Z,101598.47
2022-10-23T03:02:36.595Z,101591.44
2022-10-23T03:05:07.846Z,101590.28
2022-10-23T03:07:36.081Z,101605.22
2022-10-23T03:10:04.055Z,101607.72
2022-10-23T03:12:31.759Z,101589.31
2022-10-23T03:15:00.848Z,101585.56
2022-10-23T03:17:28.600Z,101582.53
2022-10-23T03:19:56.309Z,101569.34
2022-10-23T03:22:24.029Z,101559.81
2022-10-23T03:24:51.743Z,101550.13
2022-10-23T03:27:19.514Z,101565.06
2022-10-23T03:29:47.234Z,101591.16
2022-10-23T03:32:16.286Z,101606.09
2022-10-23T03:34:44.132Z,101617.69
2022-10-23T03:37:11.916Z,101643.63
2022-10-23T03:39:39.634Z,101648.56
2022-10-23T03:42:07.429Z,101661.28
2022-10-23T03:44:35.244Z,101676.81
2022-10-23T03:47:02.957Z,101680.63
2022-10-23T03:49:32.097Z,101675.69
2022-10-23T03:51:59.781Z,101679.78
2022-10-23T03:54:29.770Z,101702.56
2022-10-23T03:56:57.980Z,101720.19
2022-10-23T03:59:25.826Z,101730.69
2022-10-23T04:01:53.671Z,101736.06
2022-10-23T04:04:21.468Z,101725.47
2022-10-23T04:06:50.505Z,101723.00
2022-10-23T04:09:18.540Z,101715.66
2022-10-23T04:11:46.209Z,101708.72
2022-10-23T04:14:14.865Z,101728.13
2022-10-23T04:16:42.757Z,101716.25
2022-10-23T04:19:10.507Z,101713.00
2022-10-23T04:21:38.315Z,101729.19
2022-10-23T04:24:08.138Z,101724.69
2022-10-23T04:26:35.935Z,101734.63
2022-10-23T04:29:03.614Z,101733.50
2022-10-23T04:31:31.298Z,101731.28
2022-10-23T04:33:59.042Z,101749.63
2022-10-23T04:36:26.892Z,101773.03
2022-10-23T04:38:54.610Z,101788.31
2022-10-23T04:41:23.893Z,101795.22
2022-10-23T04:43:51.551Z,101801.56
2022-10-23T04:46:19.656Z,101816.66
2022-10-23T04:48:47.549Z,101828.34
2022-10-23T04:51:15.803Z,101835.69
2022-10-23T04:53:43.612Z,101846.53
2022-10-23T04:56:14.976Z,101839.75
2022-10-23T04:58:44.193Z,101836.31
2022-10-23T05:01:12.482Z,101835.56
2022-10-23T05:03:40.514Z,101840.91
2022-10-23T05:06:08.451Z,101823.34
2022-10-23T05:08:36.823Z,101817.66
2022-10-23T05:11:04.713Z,101807.38
2022-10-23T05:13:32.404Z,101816.16
2022-10-23T05:16:01.456Z,101827.50
2022-10-23T05:18:33.602Z,101842.88
2022-10-23T05:21:06.488Z,101860.38
2022-10-23T05:23:37.665Z,101864.34
2022-10-23T05:26:06.136Z,101849.00
2022-10-23T05:28:33.845Z,101856.91
2022-10-23T05:31:06.348Z,101840.06
2022-10-23T05:33:35.873Z,101834.59
2022-10-23T05:36:04.921Z,101832.53
2022-10-23T05:38:35.264Z,101844.31
2022-10-23T05:41:03.254Z,101838.88
2022-10-23T05:43:31.481Z,101836.66
2022-10-23T05:45:59.819Z,101847.88
2022-10-23T05:48:34.792Z,101838.94
2022-10-23T05:51:06.954Z,101845.59
2022-10-23T05:53:36.254Z,101837.66
2022-10-23T05:56:07.623Z,101843.59
2022-10-23T05:58:35.688Z,101843.09
2022-10-23T06:01:07.156Z,101833.06
2022-10-23T06:03:36.481Z,101820.69
2022-10-23T06:06:04.318Z,101814.66
2022-10-23T06:08:32.766Z,101822.81
2022-10-23T06:11:06.711Z,101842.91
2022-10-23T06:13:34.389Z,101821.03
2022-10-23T06:16:09.925Z,101819.63
2022-10-23T06:18:39.143Z,101817.47
2022-10-23T06:21:07.255Z,101813.56
2022-10-23T06:23:36.132Z,101813.91
2022-10-23T06:26:04.743Z,101797.22
2022-10-23T06:28:32.432Z,101800.78
2022-10-23T06:31:00.154Z,101836.44
2022-10-23T06:33:27.861Z,101848.31
2022-10-23T06:35:58.322Z,101843.97
2022-10-23T06:38:26.488Z,101840.97
2022-10-23T06:40:54.467Z,101830.13
2022-10-23T06:43:22.198Z,101844.97
2022-10-23T06:45:50.144Z,101847.28
2022-10-23T06:48:17.812Z,101855.22
2022-10-23T06:50:45.499Z,101838.00
2022-10-23T06:53:14.584Z,101832.78
2022-10-23T06:55:42.286Z,101833.41
2022-10-23T06:58:10.767Z,101847.84
2022-10-23T07:00:39.346Z,101866.25
2022-10-23T07:03:08.553Z,101872.41
2022-10-23T07:05:36.253Z,101890.16
2022-10-23T07:08:05.851Z,101887.44
2022-10-23T07:10:35.502Z,101897.53
2022-10-23T07:13:03.314Z,101908.69
2022-10-23T07:15:31.234Z,101926.94
2022-10-23T07:17:58.958Z,101938.06
2022-10-23T07:20:26.761Z,101940.09
2022-10-23T07:22:55.665Z,101927.75
2022-10-23T07:25:24.464Z,101911.44
2022-10-23T07:27:55.334Z,101893.75
2022-10-23T07:30:24.247Z,101897.72
2022-10-23T07:32:52.338Z,101910.25
2022-10-23T07:35:20.242Z,101902.56
2022-10-23T07:37:48.598Z,101927.28
2022-10-23T07:40:17.260Z,101928.47
2022-10-23T07:42:44.996Z,101930.56
2022-10-23T07:45:14.221Z,101917.00
2022-10-23T07:47:42.162Z,101922.16
2022-10-23T07:50:10.762Z,101957.91
2022-10-23T07:52:38.442Z,101943.81
2022-10-23T07:55:06.766Z,101931.00
2022-10-23T07:57:34.444Z,101935.25
2022-10-23T08:00:02.172Z,101945.69
2022-10-23T08:02:31.240Z,101940.75
2022-10-23T08:04:59.365Z,101933.34
2022-10-23T08:07:27.025Z,101932.44
2022-10-23T08:09:54.741Z,101931.06
2022-10-23T08:12:22.422Z,101919.19
2022-10-23T08:14:50.144Z,101913.06
2022-10-23T08:17:17.850Z,101916.88
2022-10-23T08:19:48.433Z,101916.22
2022-10-23T08:22:16.387Z,101897.66
2022-10-23T08:24:44.238Z,101906.03
2022-10-23T08:27:11.963Z,101900.84
2022-10-23T08:29:39.658Z,101870.69
2022-10-23T08:32:07.417Z,101866.22
2022-10-23T08:34:37.797Z,101853.09
2022-10-23T08:37:06.858Z,101875.31
2022-10-23T08:39:34.573Z,101867.19
2022-10-23T08:42:02.459Z,101875.31
2022-10-23T08:44:34.476Z,101861.88
2022-10-23T08:47:06.485Z,101868.00
2022-10-23T08:49:41.044Z,101866.22
2022-10-23T08:52:16.541Z,101866.50
2022-10-23T08:54:57.378Z,101835.78
2022-10-23T08:57:33.362Z,101857.94
2022-10-23T09:00:02.925Z,101865.06
2022-10-23T09:02:36.805Z,101890.44
2022-10-23T09:05:04.840Z,101891.03
2022-10-23T09:07:43.930Z,101876.03
2022-10-23T09:10:27.281Z,101877.78
2022-10-23T09:12:58.865Z,101841.50
2022-10-23T09:15:31.529Z,101871.38
2022-10-23T09:18:02.044Z,101862.25
2022-10-23T09:20:34.323Z,101874.75
2022-10-23T09:23:09.375Z,101870.22
2022-10-23T09:25:40.062Z,101847.19
2022-10-23T09:28:08.217Z,101855.09
2022-10-23T09:30:38.422Z,101845.03
2022-10-23T09:33:16.179Z,101899.88
2022-10-23T09:35:55.303Z,101905.78
2022-10-23T09:38:32.933Z,101897.44
2022-10-23T09:41:04.126Z,101882.03
2022-10-23T09:43:31.839Z,101860.22
2022-10-23T09:46:01.534Z,101876.25
2022-10-23T09:48:29.633Z,101886.22
2022-10-23T09:50:59.136Z,101894.34
2022-10-23T09:53:34.094Z,101911.97
2022-10-23T09:56:04.802Z,101899.44
2022-10-23T09:58:38.174Z,101902.19
2022-10-23T10:01:06.262Z,101882.50
2022-10-23T10:03:34.175Z,101893.59
2022-10-23T10:06:03.791Z,101892.25
2022-10-23T10:08:41.656Z,101873.00
2022-10-23T10:11:16.239Z,101875.88
2022-10-23T10:14:06.399Z,101870.75
2022-10-23T10:16:43.750Z,101834.38
2022-10-23T10:19:20.167Z,101807.97
2022-10-23T10:21:54.582Z,101783.25
2022-10-23T10:24:32.108Z,101764.59
2022-10-23T10:27:08.471Z,101744.84
2022-10-23T10:29:46.832Z,101712.94
2022-10-23T10:32:32.200Z,101717.19
2022-10-23T10:35:11.234Z,101712.53
2022-10-23T10:37:51.906Z,101739.41
2022-10-23T10:40:27.077Z,101766.66
2022-10-23T10:43:15.039Z,101715.06
2022-10-23T10:45:47.925Z,101658.06
2022-10-23T10:48:26.536Z,101586.88
2022-10-23T10:50:58.761Z,101584.72
2022-10-23T10:53:32.345Z,101575.03
2022-10-23T10:56:04.959Z,101513.66
2022-10-23T10:58:39.660Z,101201.34
2022-10-23T11:01:15.338Z,101283.69
2022-10-23T11:03:51.875Z,101247.03
2022-10-23T11:06:24.102Z,101099.03
2022-10-23T11:08:58.133Z,101022.66
2022-10-23T11:11:37.103Z,100964.75
2022-10-23T11:14:05.085Z,100548.13
2022-10-23T11:16:36.619Z,100995.81
2022-10-23T11:19:11.525Z,101083.53
2022-10-23T11:21:45.335Z,101079.34
2022-10-23T11:24:40.756Z,100998.28
2022-10-23T11:27:29.175Z,100947.50
2022-10-23T11:30:22.829Z,100993.75
2022-10-23T11:33:09.183Z,101022.56
2022-10-23T11:35:53.230Z,101055.13
2022-10-23T11:38:27.300Z,100980.06
2022-10-23T11:40:58.568Z,100958.44
2022-10-23T11:43:33.501Z,100959.91
2022-10-23T11:46:13.473Z,100940.25
2022-10-23T11:48:42.501Z,100931.03
2022-10-23T11:51:29.182Z,100915.50
2022-10-23T11:54:08.032Z,100913.16
2022-10-23T11:56:35.878Z,100974.25
2022-10-23T11:59:24.342Z,101004.38
2022-10-23T12:01:54.971Z,101029.84
2022-10-23T12:04:27.440Z,101096.06
2022-10-23T12:06:57.836Z,101038.97
2022-10-23T12:09:29.881Z,101048.41
2022-10-23T12:12:17.884Z,101058.66
2022-10-23T12:14:49.312Z,101038.56
2022-10-23T12:17:35.802Z,101045.38
2022-10-23T12:20:20.302Z,101011.38
2022-10-23T12:22:59.802Z,101009.75
2022-10-23T12:25:37.647Z,101013.84
2022-10-23T12:28:13.697Z,101010.28
2022-10-23T12:30:48.381Z,101043.31
2022-10-23T12:33:23.863Z,101068.41
2022-10-23T12:36:41.788Z,101063.28
2022-10-23T12:39:31.296Z,101078.56
2022-10-23T12:42:00.440Z,101071.97
2022-10-23T12:44:28.965Z,101070.28
2022-10-23T12:47:00.371Z,101092.50
2022-10-23T12:49:31.533Z,101088.53
2022-10-23T12:52:01.190Z,101033.72
2022-10-23T12:54:32.063Z,101021.94
2022-10-23T12:57:00.291Z,101044.09
2022-10-23T12:59:33.434Z,101005.31
2022-10-23T13:02:02.621Z,101028.59
2022-10-23T13:04:32.347Z,101014.03
2022-10-23T13:07:02.581Z,100990.34
2022-10-23T13:09:32.883Z,100998.91
2022-10-23T13:12:03.382Z,101017.78
2022-10-23T13:14:34.036Z,101048.66
2022-10-23T13:17:04.944Z,101055.16
2022-10-23T13:19:33.082Z,101073.34
2022-10-23T13:22:02.052Z,101074.19
2022-10-23T13:24:31.228Z,101051.63
2022-10-23T13:26:59.674Z,101053.59
2022-10-23T13:29:30.093Z,101021.06
2022-10-23T13:31:58.301Z,101021.66
2022-10-23T13:34:29.366Z,101000.13
2022-10-23T13:37:01.119Z,101000.47
2022-10-23T13:39:31.422Z,100979.03
2022-10-23T13:42:10.883Z,100970.72
2022-10-23T13:44:38.723Z,100967.44
2022-10-23T13:47:07.183Z,100956.22
2022-10-23T13:49:36.908Z,100944.88
2022-10-23T13:52:05.305Z,100915.22
2022-10-23T13:54:33.321Z,100920.16
2022-10-23T13:57:01.876Z,100910.06
2022-10-23T13:59:30.363Z,100900.84
2022-10-23T14:01:59.322Z,100897.25
2022-10-23T14:04:27.383Z,100901.81
2022-10-23T14:06:58.552Z,100885.69
2022-10-23T14:09:26.397Z,100864.31
2022-10-23T14:11:54.117Z,100855.00
2022-10-23T14:14:21.835Z,100852.59
2022-10-23T14:16:49.515Z,100866.50
2022-10-23T14:19:17.218Z,100860.06
2022-10-23T14:21:44.967Z,100858.75
2022-10-23T14:24:14.728Z,100829.34
2022-10-23T14:26:43.181Z,100806.03
2022-10-23T14:29:18.393Z,100822.16
2022-10-23T14:31:49.187Z,100787.22
2022-10-23T14:34:16.959Z,100751.06
2022-10-23T14:36:50.359Z,100784.09
2022-10-23T14:39:20.122Z,100781.88
2022-10-23T14:41:48.116Z,100773.84
2022-10-23T14:44:15.933Z,100792.38
2022-10-23T14:46:43.671Z,100743.69
2022-10-23T14:49:11.316Z,100737.69
2022-10-23T14:51:38.981Z,100743.88
2022-10-23T14:54:09.130Z,100733.03
2022-10-23T14:56:40.772Z,100741.69
2022-10-23T14:59:10.657Z,100704.91
2022-10-23T15:01:43.746Z,100678.91
2022-10-23T15:04:15.702Z,100713.53
2022-10-23T15:06:44.176Z,100717.25
2022-10-23T15:09:12.332Z,100688.28
2022-10-23T15:11:41.527Z,100672.31
2022-10-23T15:14:09.330Z,100650.13
2022-10-23T15:16:41.162Z,100624.47
2022-10-23T15:19:13.488Z,100619.72
2022-10-23T15:21:45.139Z,100621.81
2022-10-23T15:24:12.918Z,100619.00
2022-10-23T15:26:43.252Z,100590.97
2022-10-23T15:29:12.218Z,100599.00
2022-10-23T15:31:49.019Z,100596.00
2022-10-23T15:34:19.099Z,100630.00
2022-10-23T15:36:47.936Z,100618.78
2022-10-23T15:39:19.168Z,100587.13
2022-10-23T15:41:52.510Z,100606.00
2022-10-23T15:44:22.150Z,100597.03
2022-10-23T15:46:50.317Z,100592.22
2022-10-23T15:49:18.621Z,100579.19
2022-10-23T15:51:46.612Z,100593.03
2022-10-23T15:54:18.394Z,100579.41
2022-10-23T15:56:46.821Z,100580.56
2022-10-23T15:59:16.214Z,100575.53
2022-10-23T16:01:44.765Z,100576.47
2022-10-23T16:04:12.656Z,100585.84
2022-10-23T16:06:40.693Z,100577.13
2022-10-23T16:09:08.460Z,100572.94
2022-10-23T16:11:38.499Z,100579.59
2022-10-23T16:14:08.289Z,100592.72
2022-10-23T16:16:37.509Z,100605.31
2022-10-23T16:19:06.139Z,100600.41
2022-10-23T16:21:35.948Z,100584.09
2022-10-23T16:24:05.638Z,100573.09
2022-10-23T16:26:33.531Z,100574.97
2022-10-23T16:29:03.474Z,100567.84
2022-10-23T16:31:31.269Z,100556.25
2022-10-23T16:34:01.799Z,100548.34
2022-10-23T16:36:30.403Z,100550.94
2022-10-23T16:38:58.111Z,100571.69
2022-10-23T16:41:25.867Z,100580.94
2022-10-23T16:43:53.718Z,100578.63
2022-10-23T16:46:23.248Z,100573.50
2022-10-23T16:48:52.277Z,100542.19
2022-10-23T16:51:23.601Z,100570.66
2022-10-23T16:53:51.728Z,100578.88
2022-10-23T16:56:23.535Z,100628.88
2022-10-23T16:58:51.625Z,100644.94
2022-10-23T17:01:26.065Z,100688.81
2022-10-23T17:03:55.310Z,100636.53
2022-10-23T17:06:25.787Z,100692.03
2022-10-23T17:08:54.367Z,100681.91
2022-10-23T17:11:24.185Z,100635.97
2022-10-23T17:13:57.225Z,100599.94
2022-10-23T17:16:28.830Z,100613.09
2022-10-23T17:18:57.390Z,100674.06
2022-10-23T17:21:26.533Z,100635.06
2022-10-23T17:23:54.486Z,100630.94
2022-10-23T17:26:23.532Z,100597.31
2022-10-23T17:28:51.301Z,100596.34
2022-10-23T17:31:22.274Z,100616.72
2022-10-23T17:33:51.973Z,100624.00
2022-10-23T17:36:21.579Z,100638.31
2022-10-23T17:38:50.937Z,100659.19
2022-10-23T17:41:21.156Z,100726.34
2022-10-23T17:43:49.085Z,100774.69
2022-10-23T17:46:18.649Z,100723.03
2022-10-23T17:48:46.417Z,100649.38
2022-10-23T17:51:16.594Z,100661.53
2022-10-23T17:53:46.750Z,100659.69
2022-10-23T17:56:20.040Z,100740.38
2022-10-23T17:58:47.868Z,100792.94
2022-10-23T18:01:18.251Z,100815.28
2022-10-23T18:03:46.111Z,100791.56
2022-10-23T18:06:16.991Z,100837.44
2022-10-23T18:08:45.656Z,100842.34
2022-10-23T18:11:17.414Z,100912.66
2022-10-23T18:13:45.334Z,100875.34
2022-10-23T18:16:14.098Z,100863.06
2022-10-23T18:18:43.640Z,100826.25
2022-10-23T18:21:11.754Z,100863.44
2022-10-23T18:23:39.512Z,100820.50
2022-10-23T18:26:07.993Z,100840.41
2022-10-23T18:28:37.113Z,100834.69
2022-10-23T18:31:09.023Z,100802.09
2022-10-23T18:33:36.710Z,100811.66
2022-10-23T18:36:04.937Z,100836.50
2022-10-23T18:38:32.613Z,100804.34
2022-10-23T18:41:00.290Z,100802.78
2022-10-23T18:43:42.502Z,100844.84
2022-10-23T18:46:12.886Z,100882.34
2022-10-23T18:48:40.988Z,100900.22
2022-10-23T18:51:15.766Z,100892.22
2022-10-23T18:53:46.563Z,100926.25
2022-10-23T18:56:15.057Z,100889.63
2022-10-23T18:58:43.342Z,100854.47
2022-10-23T19:01:12.493Z,100821.31
2022-10-23T19:03:40.287Z,100864.59
2022-10-23T19:06:08.642Z,100793.16
2022-10-23T19:08:37.793Z,100846.44
2022-10-23T19:11:06.510Z,100834.22
2022-10-23T19:13:38.957Z,100797.56
2022-10-23T19:16:09.873Z,100835.66
2022-10-23T19:18:40.647Z,100868.81
2022-10-23T19:21:08.672Z,100856.72
2022-10-23T19:23:37.312Z,100861.81
2022-10-23T19:26:08.687Z,100930.94
2022-10-23T19:28:38.024Z,100969.34
2022-10-23T19:31:07.585Z,100961.44
2022-10-23T19:33:36.142Z,100934.81
2022-10-23T19:36:08.825Z,100918.34
2022-10-23T19:38:40.271Z,100932.78
2022-10-23T19:41:08.370Z,100951.66
2022-10-23T19:43:37.652Z,100973.00
2022-10-23T19:46:09.487Z,100973.31
2022-10-23T19:48:42.440Z,100963.00
2022-10-23T19:51:12.850Z,100990.34
2022-10-23T19:53:41.943Z,101011.84
2022-10-23T19:56:11.620Z,100985.59
2022-10-23T19:58:39.838Z,100982.88
2022-10-23T20:01:09.293Z,100986.19
2022-10-23T20:03:37.073Z,100991.34
2022-10-23T20:06:05.179Z,100964.66
2022-10-23T20:08:35.169Z,100948.81
2022-10-23T20:11:03.135Z,100930.09
2022-10-23T20:13:30.959Z,100879.28
2022-10-23T20:15:58.682Z,100863.53
2022-10-23T20:18:27.396Z,100859.25
2022-10-23T20:20:55.246Z,100868.41
2022-10-23T20:23:22.965Z,100874.72
2022-10-23T20:25:52.021Z,100895.91
2022-10-23T20:28:21.681Z,100914.31
2022-10-23T20:30:49.411Z,100923.94
2022-10-23T20:33:17.114Z,100907.41
2022-10-23T20:35:44.942Z,100924.50
2022-10-23T20:38:12.687Z,100976.84
2022-10-23T20:40:40.398Z,100957.69
2022-10-23T20:43:09.475Z,100940.06
2022-10-23T20:45:37.566Z,100955.97
2022-10-23T20:48:06.150Z,100972.31
2022-10-23T20:50:35.664Z,100994.22
2022-10-23T20:53:03.692Z,100998.88
2022-10-23T20:55:31.448Z,101007.91
2022-10-23T20:57:59.365Z,101016.25
2022-10-23T21:00:28.414Z,101016.06
2022-10-23T21:03:01.722Z,101022.94
2022-10-23T21:05:29.771Z,101023.75
2022-10-23T21:07:57.469Z,101019.75
2022-10-23T21:10:25.317Z,101029.09
2022-10-23T21:12:53.045Z,101033.91
2022-10-23T21:15:21.054Z,101034.59
2022-10-23T21:17:52.252Z,101036.75
2022-10-23T21:20:20.133Z,101035.59
2022-10-23T21:22:47.878Z,101039.09
2022-10-23T21:25:18.568Z,101031.91
2022-10-23T21:27:46.607Z,101007.69
2022-10-23T21:30:14.756Z,101013.25
2022-10-23T21:32:42.446Z,101008.72
2022-10-23T21:35:12.027Z,101010.91
2022-10-23T21:37:39.716Z,101014.75
2022-10-23T21:40:09.149Z,101030.91
2022-10-23T21:42:36.844Z,101006.56
2022-10-23T21:45:05.095Z,101013.59
2022-10-23T21:47:34.798Z,101020.56
2022-10-23T21:50:02.511Z,101025.06
2022-10-23T21:52:31.859Z,101011.88
2022-10-23T21:54:59.579Z,101012.41
2022-10-23T21:57:30.992Z,101020.94
2022-10-23T21:59:58.694Z,101022.09
2022-10-23T22:02:26.633Z,101035.09
2022-10-23T22:04:54.486Z,101023.91
2022-10-23T22:07:22.229Z,101012.09
2022-10-23T22:09:51.384Z,101017.06
2022-10-23T22:12:19.073Z,101015.56
2022-10-23T22:14:46.944Z,100997.22
2022-10-23T22:17:14.638Z,101008.09
2022-10-23T22:19:42.476Z,101003.88
2022-10-23T22:22:10.242Z,100998.56
2022-10-23T22:24:38.176Z,100986.00
2022-10-23T22:27:07.298Z,100970.34
2022-10-23T22:29:35.054Z,100970.31
2022-10-23T22:32:02.736Z,100931.19
2022-10-23T22:34:52.043Z,100922.22
2022-10-23T22:37:19.212Z,100921.94
2022-10-23T22:39:47.108Z,100939.44
2022-10-23T22:42:16.175Z,100927.56
2022-10-23T22:44:43.914Z,100901.97
2022-10-23T22:47:11.676Z,100894.50
2022-10-23T22:49:39.424Z,100903.31
2022-10-23T22:52:07.155Z,100903.22
2022-10-23T22:54:35.033Z,100921.59
2022-10-23T22:57:02.744Z,100917.50
2022-10-23T22:59:31.789Z,100908.31
2022-10-23T23:01:59.510Z,100909.72
2022-10-23T23:04:43.109Z,100884.38
2022-10-23T23:07:13.353Z,100883.97
2022-10-23T23:09:42.896Z,100882.03
2022-10-23T23:12:12.374Z,100876.72
2022-10-23T23:14:42.294Z,100897.34
2022-10-23T23:17:10.270Z,100882.16
2022-10-23T23:19:38.090Z,100896.94
2022-10-23T23:22:06.288Z,100881.72
2022-10-23T23:24:34.272Z,100872.31
2022-10-23T23:27:02.100Z,100893.44
2022-10-23T23:29:29.862Z,100874.09
2022-10-23T23:31:59.029Z,100878.13
2022-10-23T23:34:27.235Z,100894.97
2022-10-23T23:36:54.959Z,100886.25
2022-10-23T23:39:22.672Z,100871.19
2022-10-23T23:41:50.409Z,100893.31
2022-10-23T23:44:18.115Z,100883.47
2022-10-23T23:46:45.820Z,100878.19
2022-10-23T23:49:14.958Z,100901.44
2022-10-23T23:51:42.683Z,100894.25
2022-10-23T23:54:10.382Z,100899.66
2022-10-23T23:56:38.108Z,101007.84
2022-10-23T23:59:05.809Z,101007.13
